sensor_id;sensor_type;location;lat;lon;timestamp;P1;durP1;ratioP1;P2;durP2;ratioP2
44446;SDS011;30152;52.066;5.358;2023-02-17T07:31:24;27.92;;;11.82;;
44446;SDS011;30152;52.066;5.358;2023-02-17T07:33:50;24.38;;;10.95;;
44446;SDS011;30152;52.066;5.358;2023-02-17T07:36:16;22.13;;;11.32;;
44446;SDS011;30152;52.066;5.358;2023-02-17T07:38:42;24.05;;;10.63;;
44446;SDS011;30152;52.066;5.358;2023-02-17T07:41:09;24.02;;;10.80;;
44446;SDS011;30152;52.066;5.358;2023-02-17T07:43:36;21.77;;;10.45;;
44446;SDS011;30152;52.066;5.358;2023-02-17T07:46:02;22.95;;;9.90;;
44446;SDS011;30152;52.066;5.358;2023-02-17T07:48:28;19.23;;;9.25;;
44446;SDS011;30152;52.066;5.358;2023-02-17T07:50:54;18.27;;;9.60;;
44446;SDS011;30152;52.066;5.358;2023-02-17T07:53:20;19.75;;;10.38;;
44446;SDS011;30152;52.066;5.358;2023-02-17T07:55:46;21.60;;;10.60;;
44446;SDS011;30152;52.066;5.358;2023-02-17T07:58:12;19.20;;;10.82;;
44446;SDS011;30152;52.066;5.358;2023-02-17T08:00:38;20.83;;;11.10;;
44446;SDS011;30152;52.066;5.358;2023-02-17T08:03:04;20.88;;;10.02;;
44446;SDS011;30152;52.066;5.358;2023-02-17T08:05:29;21.27;;;9.95;;
44446;SDS011;30152;52.066;5.358;2023-02-17T08:07:55;19.50;;;11.13;;
44446;SDS011;30152;52.066;5.358;2023-02-17T08:10:39;20.83;;;10.40;;
44446;SDS011;30152;52.066;5.358;2023-02-17T08:13:34;21.80;;;10.77;;
44446;SDS011;30152;52.066;5.358;2023-02-17T08:16:00;19.02;;;10.07;;
44446;SDS011;30152;52.066;5.358;2023-02-17T08:18:26;19.23;;;10.63;;
44446;SDS011;30152;52.066;5.358;2023-02-17T08:20:52;18.75;;;9.93;;
44446;SDS011;30152;52.066;5.358;2023-02-17T08:23:18;17.20;;;10.07;;
44446;SDS011;30152;52.066;5.358;2023-02-17T08:25:44;18.38;;;10.27;;
44446;SDS011;30152;52.066;5.358;2023-02-17T08:28:10;18.55;;;10.55;;
44446;SDS011;30152;52.066;5.358;2023-02-17T08:30:36;18.08;;;10.10;;
44446;SDS011;30152;52.066;5.358;2023-02-17T08:33:02;19.02;;;10.65;;
44446;SDS011;30152;52.066;5.358;2023-02-17T08:35:28;18.92;;;9.93;;
44446;SDS011;30152;52.066;5.358;2023-02-17T08:37:53;18.83;;;10.18;;
44446;SDS011;30152;52.066;5.358;2023-02-17T08:40:19;17.55;;;10.70;;
44446;SDS011;30152;52.066;5.358;2023-02-17T08:42:44;20.15;;;10.38;;
44446;SDS011;30152;52.066;5.358;2023-02-17T08:45:12;17.88;;;10.23;;
44446;SDS011;30152;52.066;5.358;2023-02-17T08:47:41;17.27;;;10.20;;
44446;SDS011;30152;52.066;5.358;2023-02-17T08:50:07;16.27;;;9.65;;
44446;SDS011;30152;52.066;5.358;2023-02-17T08:52:34;18.05;;;9.70;;
44446;SDS011;30152;52.066;5.358;2023-02-17T08:55:00;16.50;;;9.18;;
44446;SDS011;30152;52.066;5.358;2023-02-17T08:57:26;16.17;;;8.88;;
44446;SDS011;30152;52.066;5.358;2023-02-17T08:59:52;19.75;;;9.80;;
44446;SDS011;30152;52.066;5.358;2023-02-17T09:02:18;16.75;;;9.27;;
44446;SDS011;30152;52.066;5.358;2023-02-17T09:04:43;19.45;;;10.13;;
44446;SDS011;30152;52.066;5.358;2023-02-17T09:07:10;16.75;;;8.98;;
44446;SDS011;30152;52.066;5.358;2023-02-17T09:09:37;13.65;;;8.55;;
44446;SDS011;30152;52.066;5.358;2023-02-17T09:12:03;18.88;;;9.40;;
44446;SDS011;30152;52.066;5.358;2023-02-17T09:14:28;16.92;;;9.40;;
44446;SDS011;30152;52.066;5.358;2023-02-17T09:16:55;16.08;;;8.05;;
44446;SDS011;30152;52.066;5.358;2023-02-17T09:19:21;13.80;;;8.18;;
44446;SDS011;30152;52.066;5.358;2023-02-17T09:21:47;14.88;;;8.38;;
44446;SDS011;30152;52.066;5.358;2023-02-17T09:24:13;16.65;;;8.70;;
44446;SDS011;30152;52.066;5.358;2023-02-17T09:26:40;17.52;;;9.57;;
44446;SDS011;30152;52.066;5.358;2023-02-17T09:29:06;16.75;;;8.23;;
44446;SDS011;30152;52.066;5.358;2023-02-17T09:31:32;14.85;;;8.70;;
44446;SDS011;30152;52.066;5.358;2023-02-17T09:33:59;16.65;;;9.52;;
44446;SDS011;30152;52.066;5.358;2023-02-17T09:36:29;18.05;;;9.32;;
44446;SDS011;30152;52.066;5.358;2023-02-17T09:38:57;18.15;;;9.13;;
44446;SDS011;30152;52.066;5.358;2023-02-17T09:41:43;16.08;;;8.85;;
44446;SDS011;30152;52.066;5.358;2023-02-17T09:44:21;16.70;;;8.60;;
44446;SDS011;30152;52.066;5.358;2023-02-17T09:46:54;12.45;;;7.30;;
44446;SDS011;30152;52.066;5.358;2023-02-17T09:49:49;15.90;;;7.55;;
44446;SDS011;30152;52.066;5.358;2023-02-17T09:52:35;16.02;;;8.65;;
44446;SDS011;30152;52.066;5.358;2023-02-17T09:57:52;15.30;;;8.32;;
44446;SDS011;30152;52.066;5.358;2023-02-17T10:00:24;14.52;;;8.10;;
44446;SDS011;30152;52.066;5.358;2023-02-17T10:06:03;13.68;;;8.00;;
44446;SDS011;30152;52.066;5.358;2023-02-17T10:08:53;14.90;;;7.28;;
44446;SDS011;30152;52.066;5.358;2023-02-17T10:17:23;16.35;;;8.15;;
44446;SDS011;30152;52.066;5.358;2023-02-17T10:25:56;15.05;;;7.97;;
44446;SDS011;30152;52.066;5.358;2023-02-17T10:31:30;17.90;;;7.95;;
44446;SDS011;30152;52.066;5.358;2023-02-17T10:34:04;15.55;;;7.90;;
44446;SDS011;30152;52.066;5.358;2023-02-17T10:39:43;16.58;;;7.80;;
44446;SDS011;30152;52.066;5.358;2023-02-17T10:42:21;16.52;;;7.93;;
44446;SDS011;30152;52.066;5.358;2023-02-17T10:44:52;20.10;;;8.05;;
44446;SDS011;30152;52.066;5.358;2023-02-17T10:47:30;16.08;;;7.50;;
44446;SDS011;30152;52.066;5.358;2023-02-17T10:49:56;17.20;;;7.75;;
44446;SDS011;30152;52.066;5.358;2023-02-17T10:52:35;13.55;;;7.10;;
44446;SDS011;30152;52.066;5.358;2023-02-17T10:55:04;14.88;;;7.35;;
44446;SDS011;30152;52.066;5.358;2023-02-17T10:57:44;19.92;;;8.45;;
44446;SDS011;30152;52.066;5.358;2023-02-17T11:00:15;13.50;;;6.90;;
44446;SDS011;30152;52.066;5.358;2023-02-17T11:02:43;13.65;;;7.65;;
44446;SDS011;30152;52.066;5.358;2023-02-17T11:05:26;19.85;;;8.23;;
44446;SDS011;30152;52.066;5.358;2023-02-17T11:08:42;16.88;;;7.53;;
44446;SDS011;30152;52.066;5.358;2023-02-17T11:10:58;18.42;;;7.40;;
44446;SDS011;30152;52.066;5.358;2023-02-17T11:13:31;14.95;;;8.10;;
44446;SDS011;30152;52.066;5.358;2023-02-17T11:16:02;14.98;;;7.75;;
44446;SDS011;30152;52.066;5.358;2023-02-17T11:18:32;15.68;;;8.27;;
44446;SDS011;30152;52.066;5.358;2023-02-17T11:21:07;15.75;;;8.05;;
44446;SDS011;30152;52.066;5.358;2023-02-17T11:23:39;15.10;;;7.95;;
44446;SDS011;30152;52.066;5.358;2023-02-17T11:26:17;17.08;;;8.90;;
44446;SDS011;30152;52.066;5.358;2023-02-17T11:28:47;16.73;;;8.23;;
44446;SDS011;30152;52.066;5.358;2023-02-17T11:31:25;15.65;;;7.75;;
44446;SDS011;30152;52.066;5.358;2023-02-17T11:33:55;17.17;;;8.55;;
44446;SDS011;30152;52.066;5.358;2023-02-17T11:36:25;19.15;;;8.63;;
44446;SDS011;30152;52.066;5.358;2023-02-17T11:38:52;17.80;;;8.88;;
44446;SDS011;30152;52.066;5.358;2023-02-17T11:41:19;14.88;;;8.48;;
44446;SDS011;30152;52.066;5.358;2023-02-17T11:43:55;16.85;;;8.27;;
44446;SDS011;30152;52.066;5.358;2023-02-17T11:46:33;15.98;;;8.10;;
44446;SDS011;30152;52.066;5.358;2023-02-17T11:49:15;18.17;;;7.90;;
44446;SDS011;30152;52.066;5.358;2023-02-17T11:55:06;15.18;;;7.65;;
44446;SDS011;30152;52.066;5.358;2023-02-17T11:57:56;16.65;;;7.38;;
44446;SDS011;30152;52.066;5.358;2023-02-17T12:06:16;14.90;;;6.93;;
44446;SDS011;30152;52.066;5.358;2023-02-17T12:11:40;16.52;;;6.78;;
44446;SDS011;30152;52.066;5.358;2023-02-17T12:25:25;18.83;;;7.43;;
44446;SDS011;30152;52.066;5.358;2023-02-17T12:27:57;17.63;;;5.80;;
44446;SDS011;30152;52.066;5.358;2023-02-17T12:33:17;17.13;;;7.03;;
44446;SDS011;30152;52.066;5.358;2023-02-17T12:35:54;21.08;;;6.30;;
44446;SDS011;30152;52.066;5.358;2023-02-17T12:38:33;22.58;;;7.00;;
44446;SDS011;30152;52.066;5.358;2023-02-17T12:41:07;20.45;;;6.97;;
44446;SDS011;30152;52.066;5.358;2023-02-17T12:46:38;16.00;;;7.20;;
44446;SDS011;30152;52.066;5.358;2023-02-17T12:49:10;21.38;;;7.85;;
44446;SDS011;30152;52.066;5.358;2023-02-17T12:51:56;23.38;;;9.05;;
44446;SDS011;30152;52.066;5.358;2023-02-17T12:56:58;19.60;;;9.50;;
44446;SDS011;30152;52.066;5.358;2023-02-17T12:59:38;26.63;;;11.00;;
44446;SDS011;30152;52.066;5.358;2023-02-17T13:02:11;23.25;;;10.30;;
44446;SDS011;30152;52.066;5.358;2023-02-17T13:04:41;26.55;;;11.07;;
44446;SDS011;30152;52.066;5.358;2023-02-17T13:09:58;25.25;;;11.63;;
44446;SDS011;30152;52.066;5.358;2023-02-17T13:14:51;21.98;;;10.63;;
44446;SDS011;30152;52.066;5.358;2023-02-17T13:20:05;21.25;;;9.38;;
44446;SDS011;30152;52.066;5.358;2023-02-17T13:22:31;22.90;;;9.45;;
44446;SDS011;30152;52.066;5.358;2023-02-17T13:24:57;23.08;;;9.75;;
44446;SDS011;30152;52.066;5.358;2023-02-17T13:32:33;20.38;;;8.70;;
44446;SDS011;30152;52.066;5.358;2023-02-17T13:35:05;20.10;;;9.05;;
44446;SDS011;30152;52.066;5.358;2023-02-17T13:39:56;17.45;;;9.05;;
44446;SDS011;30152;52.066;5.358;2023-02-17T13:42:33;17.95;;;8.68;;
44446;SDS011;30152;52.066;5.358;2023-02-17T13:45:13;18.33;;;7.95;;
44446;SDS011;30152;52.066;5.358;2023-02-17T13:47:55;19.63;;;8.63;;
44446;SDS011;30152;52.066;5.358;2023-02-17T13:52:58;19.13;;;8.35;;
44446;SDS011;30152;52.066;5.358;2023-02-17T13:55:24;23.33;;;8.68;;
44446;SDS011;30152;52.066;5.358;2023-02-17T13:57:51;23.45;;;8.75;;
44446;SDS011;30152;52.066;5.358;2023-02-17T14:00:29;17.88;;;8.07;;
44446;SDS011;30152;52.066;5.358;2023-02-17T14:02:56;18.70;;;9.20;;
44446;SDS011;30152;52.066;5.358;2023-02-17T14:07:53;21.15;;;8.90;;
44446;SDS011;30152;52.066;5.358;2023-02-17T14:10:24;13.25;;;7.90;;
44446;SDS011;30152;52.066;5.358;2023-02-17T14:12:51;18.40;;;9.10;;
44446;SDS011;30152;52.066;5.358;2023-02-17T14:15:19;18.48;;;9.18;;
44446;SDS011;30152;52.066;5.358;2023-02-17T14:17:47;16.48;;;7.72;;
44446;SDS011;30152;52.066;5.358;2023-02-17T14:23:14;25.42;;;8.57;;
44446;SDS011;30152;52.066;5.358;2023-02-17T14:25:40;15.45;;;5.82;;
44446;SDS011;30152;52.066;5.358;2023-02-17T14:28:20;18.05;;;8.25;;
44446;SDS011;30152;52.066;5.358;2023-02-17T14:30:50;21.75;;;7.43;;
44446;SDS011;30152;52.066;5.358;2023-02-17T14:35:58;17.88;;;7.60;;
44446;SDS011;30152;52.066;5.358;2023-02-17T14:38:29;26.10;;;8.38;;
44446;SDS011;30152;52.066;5.358;2023-02-17T14:40:59;21.15;;;8.10;;
44446;SDS011;30152;52.066;5.358;2023-02-17T14:43:25;21.45;;;8.02;;
44446;SDS011;30152;52.066;5.358;2023-02-17T14:45:51;21.52;;;8.32;;
44446;SDS011;30152;52.066;5.358;2023-02-17T14:48:17;27.42;;;8.90;;
44446;SDS011;30152;52.066;5.358;2023-02-17T14:50:43;23.50;;;8.68;;
44446;SDS011;30152;52.066;5.358;2023-02-17T14:53:25;22.38;;;7.28;;
44446;SDS011;30152;52.066;5.358;2023-02-17T14:58:22;18.60;;;7.55;;
44446;SDS011;30152;52.066;5.358;2023-02-17T15:00:50;25.67;;;8.05;;
44446;SDS011;30152;52.066;5.358;2023-02-17T15:03:16;23.48;;;8.27;;
44446;SDS011;30152;52.066;5.358;2023-02-17T15:05:42;19.38;;;7.22;;
44446;SDS011;30152;52.066;5.358;2023-02-17T15:08:09;21.48;;;8.48;;
44446;SDS011;30152;52.066;5.358;2023-02-17T15:10:38;22.42;;;7.35;;
44446;SDS011;30152;52.066;5.358;2023-02-17T15:13:04;23.20;;;8.05;;
44446;SDS011;30152;52.066;5.358;2023-02-17T15:15:30;30.45;;;7.47;;
44446;SDS011;30152;52.066;5.358;2023-02-17T15:17:56;26.00;;;8.20;;
44446;SDS011;30152;52.066;5.358;2023-02-17T15:20:22;20.13;;;7.32;;
44446;SDS011;30152;52.066;5.358;2023-02-17T15:22:48;20.52;;;7.50;;
44446;SDS011;30152;52.066;5.358;2023-02-17T15:25:17;18.40;;;7.82;;
44446;SDS011;30152;52.066;5.358;2023-02-17T15:27:46;20.95;;;7.70;;
44446;SDS011;30152;52.066;5.358;2023-02-17T15:30:13;21.17;;;6.93;;
44446;SDS011;30152;52.066;5.358;2023-02-17T15:32:43;25.25;;;6.78;;
44446;SDS011;30152;52.066;5.358;2023-02-17T15:35:14;23.90;;;7.18;;
44446;SDS011;30152;52.066;5.358;2023-02-17T15:37:47;17.48;;;7.30;;
44446;SDS011;30152;52.066;5.358;2023-02-17T15:40:14;20.77;;;7.38;;
44446;SDS011;30152;52.066;5.358;2023-02-17T15:42:42;25.75;;;8.18;;
44446;SDS011;30152;52.066;5.358;2023-02-17T15:45:11;23.48;;;8.10;;
44446;SDS011;30152;52.066;5.358;2023-02-17T15:47:38;20.30;;;8.05;;
44446;SDS011;30152;52.066;5.358;2023-02-17T15:50:05;18.88;;;8.63;;
44446;SDS011;30152;52.066;5.358;2023-02-17T15:52:36;18.65;;;7.53;;
44446;SDS011;30152;52.066;5.358;2023-02-17T15:55:02;25.92;;;7.88;;
44446;SDS011;30152;52.066;5.358;2023-02-17T15:57:28;17.75;;;7.60;;
44446;SDS011;30152;52.066;5.358;2023-02-17T15:59:54;22.70;;;8.15;;
44446;SDS011;30152;52.066;5.358;2023-02-17T16:02:22;30.02;;;8.38;;
44446;SDS011;30152;52.066;5.358;2023-02-17T16:04:48;23.17;;;8.43;;
44446;SDS011;30152;52.066;5.358;2023-02-17T16:07:14;22.35;;;8.40;;
44446;SDS011;30152;52.066;5.358;2023-02-17T16:09:40;25.17;;;9.40;;
44446;SDS011;30152;52.066;5.358;2023-02-17T16:12:14;29.92;;;8.82;;
44446;SDS011;30152;52.066;5.358;2023-02-17T16:14:42;29.55;;;9.25;;
44446;SDS011;30152;52.066;5.358;2023-02-17T16:17:12;24.63;;;8.75;;
44446;SDS011;30152;52.066;5.358;2023-02-17T16:19:40;28.02;;;9.18;;
44446;SDS011;30152;52.066;5.358;2023-02-17T16:22:05;23.17;;;9.68;;
44446;SDS011;30152;52.066;5.358;2023-02-17T16:24:31;26.08;;;9.50;;
44446;SDS011;30152;52.066;5.358;2023-02-17T16:26:56;24.02;;;9.70;;
44446;SDS011;30152;52.066;5.358;2023-02-17T16:29:22;27.40;;;9.63;;
44446;SDS011;30152;52.066;5.358;2023-02-17T16:31:48;33.67;;;10.57;;
44446;SDS011;30152;52.066;5.358;2023-02-17T16:34:18;26.30;;;11.13;;
44446;SDS011;30152;52.066;5.358;2023-02-17T16:36:45;23.65;;;10.10;;
44446;SDS011;30152;52.066;5.358;2023-02-17T16:39:16;27.90;;;12.18;;
44446;SDS011;30152;52.066;5.358;2023-02-17T16:41:44;28.42;;;10.10;;
44446;SDS011;30152;52.066;5.358;2023-02-17T16:44:14;25.25;;;10.57;;
44446;SDS011;30152;52.066;5.358;2023-02-17T16:46:46;20.67;;;11.05;;
44446;SDS011;30152;52.066;5.358;2023-02-17T16:49:30;27.83;;;11.80;;
44446;SDS011;30152;52.066;5.358;2023-02-17T16:52:04;29.20;;;11.18;;
44446;SDS011;30152;52.066;5.358;2023-02-17T16:54:31;24.02;;;10.18;;
44446;SDS011;30152;52.066;5.358;2023-02-17T16:56:57;27.70;;;10.60;;
44446;SDS011;30152;52.066;5.358;2023-02-17T16:59:24;27.42;;;10.77;;
44446;SDS011;30152;52.066;5.358;2023-02-17T17:01:50;28.00;;;10.82;;
44446;SDS011;30152;52.066;5.358;2023-02-17T17:04:17;32.13;;;10.63;;
44446;SDS011;30152;52.066;5.358;2023-02-17T17:06:47;21.77;;;9.50;;
44446;SDS011;30152;52.066;5.358;2023-02-17T17:09:18;23.38;;;9.73;;
44446;SDS011;30152;52.066;5.358;2023-02-17T17:11:46;30.15;;;10.68;;
44446;SDS011;30152;52.066;5.358;2023-02-17T17:14:12;25.13;;;10.20;;
44446;SDS011;30152;52.066;5.358;2023-02-17T17:16:37;21.80;;;10.10;;
44446;SDS011;30152;52.066;5.358;2023-02-17T17:19:05;25.38;;;9.60;;
44446;SDS011;30152;52.066;5.358;2023-02-17T17:21:31;24.88;;;9.57;;
44446;SDS011;30152;52.066;5.358;2023-02-17T17:23:57;25.20;;;8.77;;
44446;SDS011;30152;52.066;5.358;2023-02-17T17:26:25;21.40;;;8.90;;
44446;SDS011;30152;52.066;5.358;2023-02-17T17:28:56;23.58;;;8.95;;
44446;SDS011;30152;52.066;5.358;2023-02-17T17:31:22;25.42;;;9.27;;
44446;SDS011;30152;52.066;5.358;2023-02-17T17:33:48;31.17;;;9.18;;
44446;SDS011;30152;52.066;5.358;2023-02-17T17:36:25;23.05;;;8.00;;
44446;SDS011;30152;52.066;5.358;2023-02-17T17:38:56;25.48;;;8.43;;
44446;SDS011;30152;52.066;5.358;2023-02-17T17:41:22;24.40;;;8.13;;
44446;SDS011;30152;52.066;5.358;2023-02-17T17:43:49;25.45;;;8.23;;
44446;SDS011;30152;52.066;5.358;2023-02-17T17:46:17;25.17;;;8.40;;
44446;SDS011;30152;52.066;5.358;2023-02-17T17:48:45;33.88;;;8.35;;
44446;SDS011;30152;52.066;5.358;2023-02-17T17:51:12;24.92;;;7.53;;
44446;SDS011;30152;52.066;5.358;2023-02-17T17:53:38;18.67;;;7.03;;
44446;SDS011;30152;52.066;5.358;2023-02-17T17:56:04;16.00;;;6.93;;
44446;SDS011;30152;52.066;5.358;2023-02-17T17:58:30;29.00;;;8.40;;
44446;SDS011;30152;52.066;5.358;2023-02-17T18:00:58;28.60;;;7.20;;
44446;SDS011;30152;52.066;5.358;2023-02-17T18:03:25;23.38;;;6.88;;
44446;SDS011;30152;52.066;5.358;2023-02-17T18:05:51;23.02;;;6.72;;
44446;SDS011;30152;52.066;5.358;2023-02-17T18:08:17;17.08;;;6.80;;
44446;SDS011;30152;52.066;5.358;2023-02-17T18:10:42;30.63;;;8.40;;
44446;SDS011;30152;52.066;5.358;2023-02-17T18:13:08;26.88;;;8.45;;
44446;SDS011;30152;52.066;5.358;2023-02-17T18:15:36;29.48;;;10.25;;
44446;SDS011;30152;52.066;5.358;2023-02-17T18:18:02;35.83;;;10.75;;
44446;SDS011;30152;52.066;5.358;2023-02-17T18:20:28;26.17;;;10.38;;
44446;SDS011;30152;52.066;5.358;2023-02-17T18:22:54;26.95;;;10.88;;
44446;SDS011;30152;52.066;5.358;2023-02-17T18:25:19;25.88;;;8.90;;
44446;SDS011;30152;52.066;5.358;2023-02-17T18:27:45;33.78;;;10.70;;
44446;SDS011;30152;52.066;5.358;2023-02-17T18:30:13;26.02;;;10.43;;
44446;SDS011;30152;52.066;5.358;2023-02-17T18:32:41;31.05;;;11.85;;
44446;SDS011;30152;52.066;5.358;2023-02-17T18:35:07;33.22;;;11.65;;
44446;SDS011;30152;52.066;5.358;2023-02-17T18:37:33;26.42;;;13.10;;
44446;SDS011;30152;52.066;5.358;2023-02-17T18:39:59;28.55;;;13.65;;
44446;SDS011;30152;52.066;5.358;2023-02-17T18:42:25;31.52;;;15.43;;
44446;SDS011;30152;52.066;5.358;2023-02-17T18:44:51;32.45;;;16.27;;
44446;SDS011;30152;52.066;5.358;2023-02-17T18:47:17;36.15;;;17.48;;
44446;SDS011;30152;52.066;5.358;2023-02-17T18:49:45;36.88;;;18.42;;
44446;SDS011;30152;52.066;5.358;2023-02-17T18:52:11;34.92;;;20.15;;
44446;SDS011;30152;52.066;5.358;2023-02-17T18:54:43;38.97;;;19.90;;
44446;SDS011;30152;52.066;5.358;2023-02-17T18:57:09;39.42;;;20.73;;
44446;SDS011;30152;52.066;5.358;2023-02-17T18:59:35;35.60;;;21.35;;
44446;SDS011;30152;52.066;5.358;2023-02-17T19:02:05;40.97;;;24.10;;
44446;SDS011;30152;52.066;5.358;2023-02-17T19:04:32;35.97;;;22.23;;
44446;SDS011;30152;52.066;5.358;2023-02-17T19:06:58;40.72;;;22.40;;
44446;SDS011;30152;52.066;5.358;2023-02-17T19:09:38;42.50;;;23.70;;
44446;SDS011;30152;52.066;5.358;2023-02-17T19:12:06;37.42;;;21.25;;
44446;SDS011;30152;52.066;5.358;2023-02-17T19:14:37;48.78;;;22.95;;
44446;SDS011;30152;52.066;5.358;2023-02-17T19:17:04;41.72;;;21.33;;
44446;SDS011;30152;52.066;5.358;2023-02-17T19:19:29;43.55;;;21.20;;
44446;SDS011;30152;52.066;5.358;2023-02-17T19:21:56;39.42;;;21.00;;
44446;SDS011;30152;52.066;5.358;2023-02-17T19:24:22;45.90;;;21.33;;
44446;SDS011;30152;52.066;5.358;2023-02-17T19:26:47;37.30;;;20.48;;
44446;SDS011;30152;52.066;5.358;2023-02-17T19:29:13;35.10;;;20.73;;
44446;SDS011;30152;52.066;5.358;2023-02-17T19:31:39;36.28;;;20.30;;
44446;SDS011;30152;52.066;5.358;2023-02-17T19:34:05;40.85;;;19.75;;
44446;SDS011;30152;52.066;5.358;2023-02-17T19:36:31;37.75;;;20.10;;
44446;SDS011;30152;52.066;5.358;2023-02-17T19:38:56;45.30;;;21.55;;
44446;SDS011;30152;52.066;5.358;2023-02-17T19:41:22;44.88;;;21.38;;
44446;SDS011;30152;52.066;5.358;2023-02-17T19:43:49;39.03;;;21.17;;
44446;SDS011;30152;52.066;5.358;2023-02-17T19:46:15;40.05;;;20.23;;
44446;SDS011;30152;52.066;5.358;2023-02-17T19:48:43;44.05;;;20.85;;
44446;SDS011;30152;52.066;5.358;2023-02-17T19:51:10;35.30;;;18.70;;
44446;SDS011;30152;52.066;5.358;2023-02-17T19:53:37;39.75;;;18.80;;
44446;SDS011;30152;52.066;5.358;2023-02-17T19:56:10;42.50;;;20.30;;
44446;SDS011;30152;52.066;5.358;2023-02-17T19:58:39;32.20;;;17.60;;
44446;SDS011;30152;52.066;5.358;2023-02-17T20:01:06;37.03;;;18.17;;
44446;SDS011;30152;52.066;5.358;2023-02-17T20:03:33;35.92;;;18.17;;
44446;SDS011;30152;52.066;5.358;2023-02-17T20:06:05;36.00;;;16.70;;
44446;SDS011;30152;52.066;5.358;2023-02-17T20:08:37;31.35;;;14.93;;
44446;SDS011;30152;52.066;5.358;2023-02-17T20:11:04;34.50;;;15.68;;
44446;SDS011;30152;52.066;5.358;2023-02-17T20:13:30;44.33;;;14.77;;
44446;SDS011;30152;52.066;5.358;2023-02-17T20:16:00;32.28;;;13.73;;
44446;SDS011;30152;52.066;5.358;2023-02-17T20:18:30;29.90;;;13.10;;
44446;SDS011;30152;52.066;5.358;2023-02-17T20:20:57;35.22;;;12.95;;
44446;SDS011;30152;52.066;5.358;2023-02-17T20:23:23;40.42;;;12.18;;
44446;SDS011;30152;52.066;5.358;2023-02-17T20:25:49;34.70;;;12.45;;
44446;SDS011;30152;52.066;5.358;2023-02-17T20:28:15;27.27;;;12.60;;
44446;SDS011;30152;52.066;5.358;2023-02-17T20:30:40;34.42;;;12.02;;
44446;SDS011;30152;52.066;5.358;2023-02-17T20:33:07;31.15;;;12.73;;
44446;SDS011;30152;52.066;5.358;2023-02-17T20:35:33;35.65;;;12.50;;
44446;SDS011;30152;52.066;5.358;2023-02-17T20:38:00;36.53;;;12.70;;
44446;SDS011;30152;52.066;5.358;2023-02-17T20:40:26;35.58;;;12.75;;
44446;SDS011;30152;52.066;5.358;2023-02-17T20:42:53;34.13;;;12.57;;
44446;SDS011;30152;52.066;5.358;2023-02-17T20:45:18;33.80;;;13.95;;
44446;SDS011;30152;52.066;5.358;2023-02-17T20:47:44;36.70;;;15.80;;
44446;SDS011;30152;52.066;5.358;2023-02-17T20:50:14;36.15;;;15.52;;
44446;SDS011;30152;52.066;5.358;2023-02-17T20:52:41;37.42;;;15.98;;
44446;SDS011;30152;52.066;5.358;2023-02-17T20:55:07;42.38;;;17.67;;
44446;SDS011;30152;52.066;5.358;2023-02-17T20:57:33;47.42;;;19.40;;
44446;SDS011;30152;52.066;5.358;2023-02-17T20:59:59;52.55;;;20.20;;
44446;SDS011;30152;52.066;5.358;2023-02-17T21:02:25;47.83;;;22.25;;
44446;SDS011;30152;52.066;5.358;2023-02-17T21:04:51;38.85;;;23.63;;
44446;SDS011;30152;52.066;5.358;2023-02-17T21:07:17;43.50;;;24.52;;
44446;SDS011;30152;52.066;5.358;2023-02-17T21:09:43;52.05;;;28.95;;
44446;SDS011;30152;52.066;5.358;2023-02-17T21:12:08;55.78;;;29.60;;
44446;SDS011;30152;52.066;5.358;2023-02-17T21:14:34;52.55;;;28.85;;
44446;SDS011;30152;52.066;5.358;2023-02-17T21:17:00;59.50;;;30.15;;
44446;SDS011;30152;52.066;5.358;2023-02-17T21:19:26;68.38;;;32.88;;
44446;SDS011;30152;52.066;5.358;2023-02-17T21:21:53;55.15;;;31.48;;
44446;SDS011;30152;52.066;5.358;2023-02-17T21:24:19;55.10;;;32.53;;
44446;SDS011;30152;52.066;5.358;2023-02-17T21:26:45;60.05;;;33.17;;
44446;SDS011;30152;52.066;5.358;2023-02-17T21:29:11;53.30;;;32.08;;
44446;SDS011;30152;52.066;5.358;2023-02-17T21:31:37;56.90;;;30.25;;
44446;SDS011;30152;52.066;5.358;2023-02-17T21:34:03;64.90;;;32.72;;
44446;SDS011;30152;52.066;5.358;2023-02-17T21:36:29;60.55;;;33.30;;
44446;SDS011;30152;52.066;5.358;2023-02-17T21:38:55;54.15;;;30.05;;
44446;SDS011;30152;52.066;5.358;2023-02-17T21:41:21;61.92;;;31.65;;
44446;SDS011;30152;52.066;5.358;2023-02-17T21:43:48;52.70;;;28.50;;
44446;SDS011;30152;52.066;5.358;2023-02-17T21:46:33;63.33;;;32.95;;
44446;SDS011;30152;52.066;5.358;2023-02-17T21:48:59;54.55;;;31.23;;
44446;SDS011;30152;52.066;5.358;2023-02-17T21:51:25;50.95;;;28.15;;
44446;SDS011;30152;52.066;5.358;2023-02-17T21:53:51;52.38;;;26.98;;
44446;SDS011;30152;52.066;5.358;2023-02-17T21:56:18;60.65;;;32.40;;
44446;SDS011;30152;52.066;5.358;2023-02-17T21:58:45;46.45;;;28.15;;
44446;SDS011;30152;52.066;5.358;2023-02-17T22:01:12;51.85;;;26.30;;
44446;SDS011;30152;52.066;5.358;2023-02-17T22:03:38;47.95;;;25.02;;
44446;SDS011;30152;52.066;5.358;2023-02-17T22:08:53;52.28;;;24.42;;
44446;SDS011;30152;52.066;5.358;2023-02-17T22:11:21;44.65;;;24.35;;
44446;SDS011;30152;52.066;5.358;2023-02-17T22:13:48;50.28;;;26.40;;
44446;SDS011;30152;52.066;5.358;2023-02-17T22:16:18;51.22;;;24.17;;
44446;SDS011;30152;52.066;5.358;2023-02-17T22:18:44;50.58;;;25.52;;
44446;SDS011;30152;52.066;5.358;2023-02-17T22:21:10;54.00;;;24.20;;
44446;SDS011;30152;52.066;5.358;2023-02-17T22:23:37;57.13;;;24.42;;
44446;SDS011;30152;52.066;5.358;2023-02-17T22:26:05;50.95;;;23.85;;
44446;SDS011;30152;52.066;5.358;2023-02-17T22:28:41;51.75;;;22.95;;
44446;SDS011;30152;52.066;5.358;2023-02-17T22:31:07;49.90;;;23.70;;
44446;SDS011;30152;52.066;5.358;2023-02-17T22:33:36;51.08;;;23.17;;
44446;SDS011;30152;52.066;5.358;2023-02-17T22:36:04;50.90;;;23.67;;
44446;SDS011;30152;52.066;5.358;2023-02-17T22:38:32;52.25;;;24.42;;
44446;SDS011;30152;52.066;5.358;2023-02-17T22:40:58;50.90;;;23.52;;
44446;SDS011;30152;52.066;5.358;2023-02-17T22:43:24;58.33;;;25.42;;
44446;SDS011;30152;52.066;5.358;2023-02-17T22:45:56;58.85;;;27.35;;
44446;SDS011;30152;52.066;5.358;2023-02-17T22:48:22;46.75;;;23.00;;
